sensor_id;sensor_type;location;lat;lon;timestamp;P1;durP1;ratioP1;P2;durP2;ratioP2
3881;SDS011;1956;53.482;10.238;2022-09-12T00:02:40;2.80;;;2.57;;
3881;SDS011;1956;53.482;10.238;2022-09-12T00:07:40;3.23;;;2.63;;
3881;SDS011;1956;53.482;10.238;2022-09-12T00:12:40;2.87;;;2.63;;
3881;SDS011;1956;53.482;10.238;2022-09-12T00:17:41;2.90;;;2.70;;
3881;SDS011;1956;53.482;10.238;2022-09-12T00:22:41;3.77;;;3.47;;
3881;SDS011;1956;53.482;10.238;2022-09-12T00:27:41;2.93;;;2.73;;
3881;SDS011;1956;53.482;10.238;2022-09-12T00:32:42;4.37;;;2.70;;
3881;SDS011;1956;53.482;10.238;2022-09-12T00:37:42;2.83;;;2.63;;
3881;SDS011;1956;53.482;10.238;2022-09-12T00:42:43;2.70;;;2.47;;
3881;SDS011;1956;53.482;10.238;2022-09-12T00:47:43;3.20;;;2.80;;
3881;SDS011;1956;53.482;10.238;2022-09-12T00:52:48;2.40;;;2.30;;
3881;SDS011;1956;53.482;10.238;2022-09-12T00:57:51;2.67;;;2.57;;
3881;SDS011;1956;53.482;10.238;2022-09-12T01:02:55;3.00;;;2.80;;
3881;SDS011;1956;53.482;10.238;2022-09-12T01:07:59;2.80;;;2.60;;
3881;SDS011;1956;53.482;10.238;2022-09-12T01:13:02;2.93;;;2.60;;
3881;SDS011;1956;53.482;10.238;2022-09-12T01:18:50;3.67;;;3.30;;
3881;SDS011;1956;53.482;10.238;2022-09-12T01:23:55;5.00;;;2.83;;
3881;SDS011;1956;53.482;10.238;2022-09-12T01:29:20;3.40;;;3.10;;
3881;SDS011;1956;53.482;10.238;2022-09-12T01:34:50;3.10;;;2.90;;
3881;SDS011;1956;53.482;10.238;2022-09-12T01:40:12;3.70;;;3.40;;
3881;SDS011;1956;53.482;10.238;2022-09-12T01:51:17;6.93;;;3.33;;
3881;SDS011;1956;53.482;10.238;2022-09-12T01:56:22;3.37;;;3.13;;
3881;SDS011;1956;53.482;10.238;2022-09-12T02:01:26;4.93;;;3.40;;
3881;SDS011;1956;53.482;10.238;2022-09-12T02:06:36;4.67;;;3.50;;
3881;SDS011;1956;53.482;10.238;2022-09-12T02:11:42;3.83;;;3.33;;
3881;SDS011;1956;53.482;10.238;2022-09-12T02:16:45;3.37;;;3.17;;
3881;SDS011;1956;53.482;10.238;2022-09-12T02:21:52;3.40;;;3.10;;
3881;SDS011;1956;53.482;10.238;2022-09-12T02:26:56;4.20;;;3.17;;
3881;SDS011;1956;53.482;10.238;2022-09-12T02:32:00;4.90;;;3.93;;
3881;SDS011;1956;53.482;10.238;2022-09-12T02:37:06;3.70;;;3.43;;
3881;SDS011;1956;53.482;10.238;2022-09-12T02:42:34;3.93;;;3.67;;
3881;SDS011;1956;53.482;10.238;2022-09-12T02:47:57;11.20;;;3.50;;
3881;SDS011;1956;53.482;10.238;2022-09-12T02:53:06;8.57;;;4.20;;
3881;SDS011;1956;53.482;10.238;2022-09-12T02:58:08;3.57;;;3.27;;
3881;SDS011;1956;53.482;10.238;2022-09-12T03:03:16;5.27;;;4.67;;
3881;SDS011;1956;53.482;10.238;2022-09-12T03:08:34;4.50;;;4.20;;
3881;SDS011;1956;53.482;10.238;2022-09-12T03:19:51;4.30;;;4.00;;
3881;SDS011;1956;53.482;10.238;2022-09-12T03:31:12;4.50;;;4.10;;
3881;SDS011;1956;53.482;10.238;2022-09-12T03:36:23;4.50;;;4.20;;
3881;SDS011;1956;53.482;10.238;2022-09-12T03:41:25;4.03;;;3.63;;
3881;SDS011;1956;53.482;10.238;2022-09-12T03:46:25;4.87;;;4.47;;
3881;SDS011;1956;53.482;10.238;2022-09-12T03:51:26;4.57;;;4.17;;
3881;SDS011;1956;53.482;10.238;2022-09-12T03:56:26;6.10;;;4.53;;
3881;SDS011;1956;53.482;10.238;2022-09-12T04:01:27;4.83;;;4.37;;
3881;SDS011;1956;53.482;10.238;2022-09-12T04:06:27;4.67;;;4.27;;
3881;SDS011;1956;53.482;10.238;2022-09-12T04:11:27;5.13;;;3.73;;
3881;SDS011;1956;53.482;10.238;2022-09-12T04:16:28;4.30;;;3.90;;
3881;SDS011;1956;53.482;10.238;2022-09-12T04:21:28;4.40;;;4.00;;
3881;SDS011;1956;53.482;10.238;2022-09-12T04:26:28;3.93;;;3.63;;
3881;SDS011;1956;53.482;10.238;2022-09-12T04:31:30;3.33;;;3.13;;
3881;SDS011;1956;53.482;10.238;2022-09-12T04:36:31;4.17;;;3.50;;
3881;SDS011;1956;53.482;10.238;2022-09-12T04:41:34;7.83;;;4.80;;
3881;SDS011;1956;53.482;10.238;2022-09-12T04:46:36;4.57;;;4.07;;
3881;SDS011;1956;53.482;10.238;2022-09-12T04:51:38;5.03;;;3.97;;
3881;SDS011;1956;53.482;10.238;2022-09-12T04:56:40;4.20;;;3.90;;
3881;SDS011;1956;53.482;10.238;2022-09-12T05:01:41;7.63;;;4.60;;
3881;SDS011;1956;53.482;10.238;2022-09-12T05:06:42;5.07;;;4.57;;
3881;SDS011;1956;53.482;10.238;2022-09-12T05:11:43;5.00;;;4.60;;
3881;SDS011;1956;53.482;10.238;2022-09-12T05:16:44;4.43;;;4.03;;
3881;SDS011;1956;53.482;10.238;2022-09-12T05:21:45;5.30;;;4.80;;
3881;SDS011;1956;53.482;10.238;2022-09-12T05:26:45;4.70;;;4.30;;
3881;SDS011;1956;53.482;10.238;2022-09-12T05:31:45;5.37;;;4.87;;
3881;SDS011;1956;53.482;10.238;2022-09-12T05:36:51;5.97;;;5.40;;
3881;SDS011;1956;53.482;10.238;2022-09-12T05:41:51;6.53;;;5.30;;
3881;SDS011;1956;53.482;10.238;2022-09-12T05:46:51;5.27;;;4.77;;
3881;SDS011;1956;53.482;10.238;2022-09-12T05:51:52;5.13;;;4.67;;
3881;SDS011;1956;53.482;10.238;2022-09-12T05:56:53;6.13;;;4.97;;
3881;SDS011;1956;53.482;10.238;2022-09-12T06:01:53;7.90;;;6.50;;
3881;SDS011;1956;53.482;10.238;2022-09-12T06:06:53;9.53;;;5.70;;
3881;SDS011;1956;53.482;10.238;2022-09-12T06:11:54;7.03;;;6.10;;
3881;SDS011;1956;53.482;10.238;2022-09-12T06:16:54;7.63;;;5.97;;
3881;SDS011;1956;53.482;10.238;2022-09-12T06:21:55;7.70;;;6.17;;
3881;SDS011;1956;53.482;10.238;2022-09-12T06:26:55;9.37;;;6.87;;
3881;SDS011;1956;53.482;10.238;2022-09-12T06:31:56;10.23;;;7.80;;
3881;SDS011;1956;53.482;10.238;2022-09-12T06:36:56;72.77;;;9.40;;
3881;SDS011;1956;53.482;10.238;2022-09-12T06:41:57;35.53;;;9.80;;
3881;SDS011;1956;53.482;10.238;2022-09-12T06:46:57;118.83;;;11.60;;
3881;SDS011;1956;53.482;10.238;2022-09-12T06:51:58;84.97;;;11.03;;
3881;SDS011;1956;53.482;10.238;2022-09-12T06:56:58;147.80;;;14.20;;
3881;SDS011;1956;53.482;10.238;2022-09-12T07:01:59;42.90;;;10.90;;
3881;SDS011;1956;53.482;10.238;2022-09-12T07:07:00;116.83;;;13.13;;
3881;SDS011;1956;53.482;10.238;2022-09-12T07:12:00;28.27;;;11.90;;
3881;SDS011;1956;53.482;10.238;2022-09-12T07:17:03;21.40;;;11.43;;
3881;SDS011;1956;53.482;10.238;2022-09-12T07:22:04;33.13;;;14.30;;
3881;SDS011;1956;53.482;10.238;2022-09-12T07:27:04;16.83;;;12.47;;
3881;SDS011;1956;53.482;10.238;2022-09-12T07:32:05;15.47;;;12.73;;
3881;SDS011;1956;53.482;10.238;2022-09-12T07:37:05;15.13;;;12.67;;
3881;SDS011;1956;53.482;10.238;2022-09-12T07:42:06;16.73;;;13.20;;
3881;SDS011;1956;53.482;10.238;2022-09-12T07:47:06;24.00;;;14.87;;
3881;SDS011;1956;53.482;10.238;2022-09-12T07:52:07;16.70;;;13.63;;
3881;SDS011;1956;53.482;10.238;2022-09-12T07:57:08;17.27;;;15.30;;
3881;SDS011;1956;53.482;10.238;2022-09-12T08:02:11;16.40;;;14.70;;
3881;SDS011;1956;53.482;10.238;2022-09-12T08:07:13;20.97;;;16.87;;
3881;SDS011;1956;53.482;10.238;2022-09-12T08:12:13;15.43;;;13.83;;
3881;SDS011;1956;53.482;10.238;2022-09-12T08:17:15;15.17;;;13.33;;
3881;SDS011;1956;53.482;10.238;2022-09-12T08:22:15;15.77;;;14.27;;
3881;SDS011;1956;53.482;10.238;2022-09-12T08:27:17;14.40;;;13.10;;
3881;SDS011;1956;53.482;10.238;2022-09-12T08:32:18;13.73;;;12.37;;
3881;SDS011;1956;53.482;10.238;2022-09-12T08:37:18;12.70;;;11.50;;
3881;SDS011;1956;53.482;10.238;2022-09-12T08:48:01;10.67;;;9.67;;
3881;SDS011;1956;53.482;10.238;2022-09-12T08:53:05;7.93;;;7.13;;
3881;SDS011;1956;53.482;10.238;2022-09-12T08:58:13;8.40;;;7.60;;
3881;SDS011;1956;53.482;10.238;2022-09-12T09:26:20;8.63;;;7.03;;
3881;SDS011;1956;53.482;10.238;2022-09-12T09:31:29;7.33;;;6.63;;
3881;SDS011;1956;53.482;10.238;2022-09-12T09:36:51;5.40;;;5.00;;
3881;SDS011;1956;53.482;10.238;2022-09-12T09:42:10;6.97;;;6.40;;
3881;SDS011;1956;53.482;10.238;2022-09-12T09:47:16;8.47;;;7.67;;
3881;SDS011;1956;53.482;10.238;2022-09-12T09:52:20;6.27;;;5.43;;
3881;SDS011;1956;53.482;10.238;2022-09-12T09:57:37;12.83;;;5.60;;
3881;SDS011;1956;53.482;10.238;2022-09-12T10:02:39;9.87;;;6.70;;
3881;SDS011;1956;53.482;10.238;2022-09-12T10:07:39;8.27;;;7.40;;
3881;SDS011;1956;53.482;10.238;2022-09-12T10:12:49;7.33;;;4.90;;
3881;SDS011;1956;53.482;10.238;2022-09-12T10:17:50;4.10;;;3.80;;
3881;SDS011;1956;53.482;10.238;2022-09-12T10:22:50;6.90;;;6.30;;
3881;SDS011;1956;53.482;10.238;2022-09-12T10:27:55;7.93;;;6.73;;
3881;SDS011;1956;53.482;10.238;2022-09-12T10:33:03;7.03;;;5.57;;
3881;SDS011;1956;53.482;10.238;2022-09-12T10:38:05;5.27;;;4.80;;
3881;SDS011;1956;53.482;10.238;2022-09-12T10:48:37;4.23;;;3.93;;
3881;SDS011;1956;53.482;10.238;2022-09-12T10:53:40;7.90;;;5.30;;
3881;SDS011;1956;53.482;10.238;2022-09-12T11:04:54;1.60;;;1.50;;
3881;SDS011;1956;53.482;10.238;2022-09-12T11:11:00;2.70;;;1.60;;
3881;SDS011;1956;53.482;10.238;2022-09-12T11:16:28;5.37;;;1.40;;
3881;SDS011;1956;53.482;10.238;2022-09-12T11:33:17;1.50;;;1.40;;
3881;SDS011;1956;53.482;10.238;2022-09-12T11:38:43;1.83;;;1.00;;
3881;SDS011;1956;53.482;10.238;2022-09-12T11:43:50;1.40;;;0.97;;
3881;SDS011;1956;53.482;10.238;2022-09-12T11:49:19;1.90;;;1.13;;
3881;SDS011;1956;53.482;10.238;2022-09-12T12:00:33;1.43;;;1.33;;
3881;SDS011;1956;53.482;10.238;2022-09-12T12:05:39;1.07;;;1.07;;
3881;SDS011;1956;53.482;10.238;2022-09-12T12:10:51;2.20;;;1.00;;
3881;SDS011;1956;53.482;10.238;2022-09-12T12:15:59;1.37;;;1.27;;
3881;SDS011;1956;53.482;10.238;2022-09-12T12:21:19;3.00;;;1.80;;
3881;SDS011;1956;53.482;10.238;2022-09-12T12:26:42;1.40;;;1.30;;
3881;SDS011;1956;53.482;10.238;2022-09-12T12:42:58;1.87;;;1.30;;
3881;SDS011;1956;53.482;10.238;2022-09-12T12:48:00;1.57;;;1.30;;
3881;SDS011;1956;53.482;10.238;2022-09-12T12:53:24;1.60;;;1.50;;
3881;SDS011;1956;53.482;10.238;2022-09-12T12:58:36;1.17;;;1.10;;
3881;SDS011;1956;53.482;10.238;2022-09-12T13:03:40;1.73;;;1.23;;
3881;SDS011;1956;53.482;10.238;2022-09-12T13:08:54;1.30;;;1.20;;
3881;SDS011;1956;53.482;10.238;2022-09-12T13:14:00;1.80;;;1.70;;
3881;SDS011;1956;53.482;10.238;2022-09-12T13:19:27;1.57;;;1.47;;
3881;SDS011;1956;53.482;10.238;2022-09-12T13:24:30;1.73;;;1.30;;
3881;SDS011;1956;53.482;10.238;2022-09-12T13:29:30;1.33;;;1.23;;
3881;SDS011;1956;53.482;10.238;2022-09-12T13:34:34;1.17;;;1.07;;
3881;SDS011;1956;53.482;10.238;2022-09-12T13:39:48;1.40;;;1.30;;
3881;SDS011;1956;53.482;10.238;2022-09-12T13:45:19;3.07;;;1.63;;
3881;SDS011;1956;53.482;10.238;2022-09-12T13:50:22;1.70;;;1.60;;
3881;SDS011;1956;53.482;10.238;2022-09-12T13:55:31;3.00;;;1.50;;
3881;SDS011;1956;53.482;10.238;2022-09-12T14:00:32;1.50;;;1.40;;
3881;SDS011;1956;53.482;10.238;2022-09-12T14:05:33;1.70;;;1.60;;
3881;SDS011;1956;53.482;10.238;2022-09-12T14:10:36;3.10;;;1.60;;
3881;SDS011;1956;53.482;10.238;2022-09-12T14:15:38;1.40;;;1.30;;
3881;SDS011;1956;53.482;10.238;2022-09-12T14:20:39;1.87;;;1.37;;
3881;SDS011;1956;53.482;10.238;2022-09-12T14:25:41;1.53;;;1.43;;
3881;SDS011;1956;53.482;10.238;2022-09-12T14:30:55;2.50;;;1.53;;
3881;SDS011;1956;53.482;10.238;2022-09-12T14:41:31;2.13;;;1.40;;
3881;SDS011;1956;53.482;10.238;2022-09-12T14:46:34;1.63;;;1.53;;
3881;SDS011;1956;53.482;10.238;2022-09-12T14:51:59;1.37;;;1.33;;
3881;SDS011;1956;53.482;10.238;2022-09-12T14:57:00;1.47;;;1.37;;
3881;SDS011;1956;53.482;10.238;2022-09-12T15:07:42;1.80;;;1.20;;
3881;SDS011;1956;53.482;10.238;2022-09-12T15:13:13;1.47;;;1.37;;
3881;SDS011;1956;53.482;10.238;2022-09-12T15:18:15;2.13;;;1.60;;
3881;SDS011;1956;53.482;10.238;2022-09-12T15:23:27;1.57;;;1.33;;
3881;SDS011;1956;53.482;10.238;2022-09-12T15:28:30;2.20;;;1.73;;
3881;SDS011;1956;53.482;10.238;2022-09-12T15:33:30;1.87;;;1.77;;
3881;SDS011;1956;53.482;10.238;2022-09-12T15:38:31;5.93;;;1.33;;
3881;SDS011;1956;53.482;10.238;2022-09-12T15:43:31;1.47;;;1.30;;
3881;SDS011;1956;53.482;10.238;2022-09-12T15:48:32;2.10;;;1.90;;
3881;SDS011;1956;53.482;10.238;2022-09-12T15:53:32;2.03;;;1.83;;
3881;SDS011;1956;53.482;10.238;2022-09-12T15:58:32;2.00;;;1.90;;
3881;SDS011;1956;53.482;10.238;2022-09-12T16:03:33;2.40;;;2.30;;
3881;SDS011;1956;53.482;10.238;2022-09-12T16:08:33;2.30;;;2.20;;
3881;SDS011;1956;53.482;10.238;2022-09-12T16:13:34;2.93;;;2.53;;
3881;SDS011;1956;53.482;10.238;2022-09-12T16:18:34;3.23;;;2.53;;
3881;SDS011;1956;53.482;10.238;2022-09-12T16:23:35;3.73;;;1.93;;
3881;SDS011;1956;53.482;10.238;2022-09-12T16:28:35;2.33;;;2.17;;
3881;SDS011;1956;53.482;10.238;2022-09-12T16:33:36;2.30;;;2.20;;
3881;SDS011;1956;53.482;10.238;2022-09-12T16:38:43;2.37;;;2.17;;
3881;SDS011;1956;53.482;10.238;2022-09-12T16:43:45;2.60;;;2.13;;
3881;SDS011;1956;53.482;10.238;2022-09-12T16:48:47;3.13;;;2.67;;
3881;SDS011;1956;53.482;10.238;2022-09-12T16:53:50;2.70;;;2.50;;
3881;SDS011;1956;53.482;10.238;2022-09-12T16:58:50;3.00;;;2.27;;
3881;SDS011;1956;53.482;10.238;2022-09-12T17:03:52;2.67;;;2.47;;
3881;SDS011;1956;53.482;10.238;2022-09-12T17:08:54;2.70;;;2.50;;
3881;SDS011;1956;53.482;10.238;2022-09-12T17:13:57;3.20;;;3.00;;
3881;SDS011;1956;53.482;10.238;2022-09-12T17:18:58;2.97;;;2.60;;
3881;SDS011;1956;53.482;10.238;2022-09-12T17:23:59;2.77;;;2.57;;
3881;SDS011;1956;53.482;10.238;2022-09-12T17:28:59;3.60;;;2.53;;
3881;SDS011;1956;53.482;10.238;2022-09-12T17:34:00;3.10;;;2.90;;
3881;SDS011;1956;53.482;10.238;2022-09-12T17:39:02;3.13;;;2.93;;
3881;SDS011;1956;53.482;10.238;2022-09-12T17:44:02;4.13;;;3.03;;
3881;SDS011;1956;53.482;10.238;2022-09-12T17:49:06;3.93;;;2.70;;
3881;SDS011;1956;53.482;10.238;2022-09-12T17:54:12;3.63;;;3.43;;
3881;SDS011;1956;53.482;10.238;2022-09-12T17:59:16;4.00;;;3.50;;
3881;SDS011;1956;53.482;10.238;2022-09-12T18:04:18;5.70;;;3.70;;
3881;SDS011;1956;53.482;10.238;2022-09-12T18:09:20;4.57;;;3.63;;
3881;SDS011;1956;53.482;10.238;2022-09-12T18:14:22;3.97;;;3.70;;
3881;SDS011;1956;53.482;10.238;2022-09-12T18:19:22;5.67;;;3.60;;
3881;SDS011;1956;53.482;10.238;2022-09-12T18:24:23;8.30;;;4.30;;
3881;SDS011;1956;53.482;10.238;2022-09-12T18:29:24;3.80;;;3.57;;
3881;SDS011;1956;53.482;10.238;2022-09-12T18:34:26;6.87;;;3.57;;
3881;SDS011;1956;53.482;10.238;2022-09-12T18:39:27;5.27;;;3.73;;
3881;SDS011;1956;53.482;10.238;2022-09-12T18:44:27;4.20;;;3.80;;
3881;SDS011;1956;53.482;10.238;2022-09-12T18:49:27;3.67;;;2.90;;
3881;SDS011;1956;53.482;10.238;2022-09-12T18:54:29;3.70;;;3.30;;
3881;SDS011;1956;53.482;10.238;2022-09-12T18:59:29;5.60;;;2.87;;
3881;SDS011;1956;53.482;10.238;2022-09-12T19:04:30;4.70;;;2.77;;
3881;SDS011;1956;53.482;10.238;2022-09-12T19:09:30;2.90;;;2.70;;
3881;SDS011;1956;53.482;10.238;2022-09-12T19:14:30;3.30;;;2.83;;
3881;SDS011;1956;53.482;10.238;2022-09-12T19:19:31;2.67;;;2.47;;
3881;SDS011;1956;53.482;10.238;2022-09-12T19:24:31;4.13;;;2.70;;
3881;SDS011;1956;53.482;10.238;2022-09-12T19:29:32;2.57;;;2.37;;
3881;SDS011;1956;53.482;10.238;2022-09-12T19:34:33;2.63;;;2.53;;
3881;SDS011;1956;53.482;10.238;2022-09-12T19:39:33;2.57;;;2.37;;
3881;SDS011;1956;53.482;10.238;2022-09-12T19:44:34;9.57;;;3.20;;
3881;SDS011;1956;53.482;10.238;2022-09-12T19:49:34;3.17;;;2.80;;
3881;SDS011;1956;53.482;10.238;2022-09-12T19:54:34;3.47;;;3.17;;
3881;SDS011;1956;53.482;10.238;2022-09-12T19:59:35;3.10;;;2.80;;
3881;SDS011;1956;53.482;10.238;2022-09-12T20:04:35;3.17;;;2.97;;
3881;SDS011;1956;53.482;10.238;2022-09-12T20:09:37;3.67;;;3.37;;
3881;SDS011;1956;53.482;10.238;2022-09-12T20:14:38;6.00;;;3.27;;
3881;SDS011;1956;53.482;10.238;2022-09-12T20:19:38;3.30;;;3.00;;
3881;SDS011;1956;53.482;10.238;2022-09-12T20:24:39;5.00;;;3.43;;
3881;SDS011;1956;53.482;10.238;2022-09-12T20:29:39;3.87;;;3.00;;
3881;SDS011;1956;53.482;10.238;2022-09-12T20:34:39;5.67;;;3.03;;
3881;SDS011;1956;53.482;10.238;2022-09-12T20:39:40;3.87;;;3.30;;
3881;SDS011;1956;53.482;10.238;2022-09-12T20:44:40;3.57;;;3.37;;
3881;SDS011;1956;53.482;10.238;2022-09-12T20:49:40;3.60;;;3.30;;
3881;SDS011;1956;53.482;10.238;2022-09-12T20:54:41;4.10;;;3.60;;
3881;SDS011;1956;53.482;10.238;2022-09-12T20:59:41;4.70;;;4.30;;
3881;SDS011;1956;53.482;10.238;2022-09-12T21:04:42;4.57;;;4.17;;
3881;SDS011;1956;53.482;10.238;2022-09-12T21:09:42;5.37;;;4.00;;
3881;SDS011;1956;53.482;10.238;2022-09-12T21:14:42;5.20;;;4.47;;
3881;SDS011;1956;53.482;10.238;2022-09-12T21:19:43;17.33;;;4.43;;
3881;SDS011;1956;53.482;10.238;2022-09-12T21:24:43;6.97;;;4.50;;
3881;SDS011;1956;53.482;10.238;2022-09-12T21:29:43;4.87;;;4.47;;
3881;SDS011;1956;53.482;10.238;2022-09-12T21:34:44;5.67;;;5.17;;
3881;SDS011;1956;53.482;10.238;2022-09-12T21:39:45;5.17;;;4.70;;
3881;SDS011;1956;53.482;10.238;2022-09-12T21:44:45;7.43;;;5.53;;
3881;SDS011;1956;53.482;10.238;2022-09-12T21:49:45;5.73;;;5.27;;
3881;SDS011;1956;53.482;10.238;2022-09-12T21:54:46;6.03;;;5.50;;
3881;SDS011;1956;53.482;10.238;2022-09-12T21:59:46;8.50;;;5.97;;
3881;SDS011;1956;53.482;10.238;2022-09-12T22:04:47;9.83;;;5.40;;
3881;SDS011;1956;53.482;10.238;2022-09-12T22:09:49;7.47;;;4.83;;
3881;SDS011;1956;53.482;10.238;2022-09-12T22:14:50;5.67;;;5.10;;
3881;SDS011;1956;53.482;10.238;2022-09-12T22:19:50;5.77;;;5.27;;
3881;SDS011;1956;53.482;10.238;2022-09-12T22:24:50;7.10;;;5.07;;
3881;SDS011;1956;53.482;10.238;2022-09-12T22:29:51;5.97;;;5.47;;
3881;SDS011;1956;53.482;10.238;2022-09-12T22:34:51;7.00;;;5.53;;
3881;SDS011;1956;53.482;10.238;2022-09-12T22:39:52;6.17;;;5.50;;
3881;SDS011;1956;53.482;10.238;2022-09-12T22:44:53;6.27;;;5.73;;
3881;SDS011;1956;53.482;10.238;2022-09-12T22:49:53;6.67;;;6.00;;
3881;SDS011;1956;53.482;10.238;2022-09-12T22:54:54;6.90;;;5.93;;
3881;SDS011;1956;53.482;10.238;2022-09-12T22:59:54;9.83;;;7.13;;
3881;SDS011;1956;53.482;10.238;2022-09-12T23:04:54;6.90;;;5.60;;
3881;SDS011;1956;53.482;10.238;2022-09-12T23:09:55;6.07;;;5.50;;
3881;SDS011;1956;53.482;10.238;2022-09-12T23:14:55;7.23;;;5.67;;
3881;SDS011;1956;53.482;10.238;2022-09-12T23:19:55;9.53;;;6.30;;
3881;SDS011;1956;53.482;10.238;2022-09-12T23:24:56;7.30;;;5.80;;
3881;SDS011;1956;53.482;10.238;2022-09-12T23:29:56;7.63;;;6.03;;
3881;SDS011;1956;53.482;10.238;2022-09-12T23:34:56;6.33;;;5.50;;
3881;SDS011;1956;53.482;10.238;2022-09-12T23:39:57;7.30;;;6.37;;
3881;SDS011;1956;53.482;10.238;2022-09-12T23:44:58;5.53;;;5.03;;
3881;SDS011;1956;53.482;10.238;2022-09-12T23:49:58;6.30;;;5.70;;
3881;SDS011;1956;53.482;10.238;2022-09-12T23:54:59;13.00;;;6.50;;
3881;SDS011;1956;53.482;10.238;2022-09-12T23:59:59;6.43;;;5.80;;
